Time;durP1;ratioP1;P1;durP2;ratioP2;P2;SDS_P1;SDS_P2;PMS_P1;PMS_P2;Temp;Humidity;BMP_temperature;BMP_pressure;BME280_temperature;BME280_humidity;BME280_pressure;Samples;Min_cycle;Max_cycle;Signal;HPM_P1;HPM_P2
2021/07/26 00:00:28;;;;;;;0.40;0.40;;;;;;;17.17;82.76;96474.09;29395;198;63004;-70
2021/07/26 00:01:00;;;;;;;0.40;0.40;;;;;;;17.16;83.00;96472.50;29395;208;63008;-70
2021/07/26 00:01:31;;;;;;;0.40;0.40;;;;;;;17.15;83.00;96481.88;29395;238;63005;-67
2021/07/26 00:02:03;;;;;;;0.40;0.40;;;;;;;17.14;83.26;96480.28;29395;217;63023;-68
2021/07/26 00:02:36;;;;;;;0.40;0.40;;;;;;;17.13;83.29;96473.19;29395;249;63005;-67
2021/07/26 00:03:08;;;;;;;0.40;0.40;;;;;;;17.13;83.07;96467.72;29395;204;63009;-68
2021/07/26 00:03:42;;;;;;;0.40;0.40;;;;;;;17.12;83.29;96474.34;29395;198;63005;-62
2021/07/26 00:04:14;;;;;;;0.32;0.32;;;;;;;17.13;83.37;96478.69;29394;232;64013;-68
2021/07/26 00:04:45;;;;;;;0.40;0.40;;;;;;;17.13;83.39;96473.19;29395;215;63005;-68
2021/07/26 00:05:16;;;;;;;0.40;0.40;;;;;;;17.12;83.30;96476.28;29395;250;63020;-69
2021/07/26 00:05:58;;;;;;;0.40;0.40;;;;;;;17.13;83.04;96472.41;29395;225;63007;-70
2021/07/26 00:06:30;;;;;;;0.40;0.40;;;;;;;17.14;82.97;96474.00;29395;229;63016;-68
2021/07/26 00:07:01;;;;;;;0.45;0.45;;;;;;;17.14;82.73;96469.31;29395;209;63000;-68
2021/07/26 00:07:32;;;;;;;0.40;0.40;;;;;;;17.14;83.00;96469.31;29395;249;63026;-69
2021/07/26 00:08:05;;;;;;;0.40;0.40;;;;;;;17.14;82.93;96466.56;29395;224;63004;-67
2021/07/26 00:08:37;;;;;;;0.40;0.40;;;;;;;17.13;82.75;96470.47;29395;230;63008;-68
2021/07/26 00:09:08;;;;;;;0.40;0.40;;;;;;;17.14;82.72;96469.31;29394;205;64009;-69
2021/07/26 00:09:39;;;;;;;0.40;0.40;;;;;;;17.13;82.78;96473.19;29395;204;63009;-69
2021/07/26 00:10:12;;;;;;;0.40;0.40;;;;;;;17.14;82.76;96474.81;29395;212;63005;-68
2021/07/26 00:10:44;;;;;;;0.40;0.40;;;;;;;17.12;82.78;96471.59;29395;202;63009;-67
2021/07/26 00:11:15;;;;;;;0.40;0.40;;;;;;;17.12;82.68;96471.59;29395;198;63010;-68
2021/07/26 00:11:46;;;;;;;0.40;0.40;;;;;;;17.13;82.81;96470.47;29395;213;63009;-67
2021/07/26 00:12:17;;;;;;;0.40;0.40;;;;;;;17.13;82.65;96469.66;29395;196;63005;-68
2021/07/26 00:12:48;;;;;;;0.40;0.40;;;;;;;17.14;82.72;96472.06;29395;199;63009;-69
2021/07/26 00:13:20;;;;;;;0.40;0.40;;;;;;;17.13;82.50;96473.19;29395;206;63004;-70
2021/07/26 00:13:51;;;;;;;0.40;0.40;;;;;;;17.12;82.68;96477.09;29395;223;63009;-68
2021/07/26 00:14:22;;;;;;;0.40;0.40;;;;;;;17.11;82.56;96467.25;29394;242;64009;-69
2021/07/26 00:14:53;;;;;;;0.30;0.30;;;;;;;17.08;82.58;96470.69;29395;214;63007;-69
2021/07/26 00:15:25;;;;;;;0.40;0.40;;;;;;;17.07;82.64;96469.09;29395;211;63004;-68
2021/07/26 00:15:57;;;;;;;0.40;0.40;;;;;;;17.05;82.77;96471.37;29395;210;63009;-69
2021/07/26 00:16:28;;;;;;;0.40;0.40;;;;;;;17.03;82.86;96473.66;29395;222;63005;-69
2021/07/26 00:17:01;;;;;;;0.40;0.40;;;;;;;17.02;82.84;96466.59;29394;220;64014;-69
2021/07/26 00:17:33;;;;;;;0.40;0.40;;;;;;;17.00;82.91;96472.41;29395;210;63005;-68
2021/07/26 00:18:04;;;;;;;0.40;0.40;;;;;;;17.00;82.95;96486.09;29395;216;63009;-67
2021/07/26 00:18:35;;;;;;;0.37;0.37;;;;;;;17.01;83.20;96484.16;29395;261;63005;-69
2021/07/26 00:19:06;;;;;;;0.40;0.40;;;;;;;17.00;83.02;96485.31;29395;266;63009;-68
2021/07/26 00:19:37;;;;;;;0.40;0.40;;;;;;;17.00;83.10;96480.63;29395;230;63005;-69
2021/07/26 00:20:11;;;;;;;0.43;0.43;;;;;;;17.00;82.94;96479.81;29395;207;63009;-67
2021/07/26 00:20:42;;;;;;;0.40;0.40;;;;;;;17.00;83.22;96479.81;29395;230;63009;-70
2021/07/26 00:21:13;;;;;;;0.40;0.40;;;;;;;16.99;83.06;96478.22;29394;215;64030;-69
2021/07/26 00:21:45;;;;;;;0.40;0.40;;;;;;;16.99;82.96;96479.03;29394;244;64009;-68
2021/07/26 00:22:16;;;;;;;0.40;0.40;;;;;;;16.99;83.03;96475.50;29395;227;63009;-67
2021/07/26 00:22:48;;;;;;;0.40;0.40;;;;;;;16.98;83.26;96477.44;29395;269;63004;-67
2021/07/26 00:23:20;;;;;;;0.40;0.40;;;;;;;16.97;83.44;96475.06;29395;228;63009;-71
2021/07/26 00:23:51;;;;;;;0.40;0.40;;;;;;;16.96;83.60;96470.72;29395;211;63015;-68
2021/07/26 00:24:23;;;;;;;0.40;0.40;;;;;;;16.95;83.76;96472.66;29396;203;63009;-69
2021/07/26 00:24:54;;;;;;;0.40;0.40;;;;;;;16.94;83.95;96470.28;29396;197;63005;-68
2021/07/26 00:25:26;;;;;;;0.40;0.40;;;;;;;16.93;83.67;96469.47;29396;243;63009;-68
2021/07/26 00:25:57;;;;;;;0.40;0.40;;;;;;;16.93;83.62;96471.41;29396;210;63005;-68
2021/07/26 00:26:28;;;;;;;0.32;0.32;;;;;;;16.94;83.60;96475.75;29396;212;63009;-67
2021/07/26 00:26:59;;;;;;;0.40;0.40;;;;;;;16.93;83.65;96468.66;29395;218;64009;-69
2021/07/26 00:27:31;;;;;;;0.40;0.40;;;;;;;16.94;83.59;96464.78;29396;261;63004;-68
2021/07/26 00:28:03;;;;;;;0.40;0.40;;;;;;;16.94;83.70;96476.53;29396;198;63004;-68
2021/07/26 00:28:35;;;;;;;0.40;0.40;;;;;;;16.94;83.71;96475.75;29396;240;63009;-68
2021/07/26 00:29:06;;;;;;;0.40;0.40;;;;;;;16.94;83.72;96479.28;29396;202;63004;-68
2021/07/26 00:29:37;;;;;;;0.40;0.40;;;;;;;16.95;83.54;96475.41;29396;206;63009;-68
2021/07/26 00:30:13;;;;;;;0.40;0.40;;;;;;;16.95;83.51;96477.34;29396;235;63004;-69
2021/07/26 00:30:45;;;;;;;0.40;0.40;;;;;;;16.97;83.15;96480.53;29396;203;63008;-68
2021/07/26 00:31:20;;;;;;;0.40;0.40;;;;;;;16.98;83.48;96482.91;29396;199;63005;-66
2021/07/26 00:31:51;;;;;;;0.40;0.40;;;;;;;16.99;83.21;96478.22;29395;237;64014;-67
2021/07/26 00:32:23;;;;;;;0.40;0.40;;;;;;;16.98;83.29;96487.63;29396;202;63005;-68
2021/07/26 00:32:54;;;;;;;0.35;0.35;;;;;;;16.98;83.23;96482.13;29396;210;63009;-67
2021/07/26 00:34:08;;;;;;;0.40;0.40;;;;;;;16.98;83.24;96482.13;29396;236;63009;-67
2021/07/26 00:34:39;;;;;;;0.40;0.40;;;;;;;16.97;83.46;96480.53;29395;244;64009;-67
2021/07/26 00:35:11;;;;;;;0.40;0.40;;;;;;;16.96;83.33;96481.69;29396;207;63009;-68
2021/07/26 00:35:42;;;;;;;0.40;0.40;;;;;;;16.95;83.18;96482.81;29395;222;64009;-69
2021/07/26 00:36:13;;;;;;;0.40;0.40;;;;;;;16.94;83.25;96486.72;29396;213;63023;-68
2021/07/26 00:36:56;;;;;;;0.40;0.40;;;;;;;16.94;83.13;96484.78;29396;226;63004;-70
2021/07/26 00:37:30;;;;;;;0.40;0.40;;;;;;;16.94;83.63;96486.72;29396;212;63009;-67
2021/07/26 00:38:02;;;;;;;0.40;0.40;;;;;;;16.94;83.52;96489.44;29396;218;63004;-68
2021/07/26 00:38:34;;;;;;;0.40;0.40;;;;;;;16.94;83.61;96487.50;29396;233;63018;-70
2021/07/26 00:39:07;;;;;;;0.40;0.40;;;;;;;16.93;83.31;96482.38;29395;197;64009;-68
2021/07/26 00:39:38;;;;;;;0.30;0.30;;;;;;;16.95;83.57;96489.09;29396;260;63009;-69
2021/07/26 00:40:12;;;;;;;0.40;0.40;;;;;;;16.95;83.16;96482.81;29396;265;63005;-69
2021/07/26 00:40:44;;;;;;;0.40;0.40;;;;;;;16.95;83.25;96489.09;29396;225;63009;-68
2021/07/26 00:41:22;;;;;;;0.40;0.40;;;;;;;16.95;83.29;96485.56;29396;222;63005;-67
2021/07/26 00:41:54;;;;;;;0.40;0.40;;;;;;;16.99;83.17;96486.44;29396;278;63009;-70
2021/07/26 00:42:26;;;;;;;0.40;0.40;;;;;;;16.98;83.31;96482.91;29395;202;64009;-67
2021/07/26 00:42:57;;;;;;;0.40;0.40;;;;;;;16.98;83.21;96493.09;29396;229;63009;-69
2021/07/26 00:43:28;;;;;;;0.40;0.40;;;;;;;16.97;83.22;96488.75;29396;203;63004;-68
2021/07/26 00:44:03;;;;;;;0.40;0.40;;;;;;;16.97;83.15;96486.03;29396;249;63009;-71
2021/07/26 00:44:35;;;;;;;0.40;0.40;;;;;;;17.00;82.99;96493.53;29396;202;63008;-67
2021/07/26 00:45:08;;;;;;;0.40;0.40;;;;;;;17.00;82.96;96488.06;29396;244;63008;-68
2021/07/26 00:45:41;;;;;;;0.40;0.40;;;;;;;16.98;82.77;96488.41;29396;249;63004;-69
2021/07/26 00:46:12;;;;;;;0.40;0.40;;;;;;;16.97;83.00;96494.25;29396;221;63009;-70
2021/07/26 00:46:45;;;;;;;0.40;0.40;;;;;;;16.93;83.30;96493.34;29396;230;63005;-69
2021/07/26 00:47:17;;;;;;;0.40;0.40;;;;;;;16.90;83.66;96485.78;29395;227;64014;-68
2021/07/26 00:47:48;;;;;;;0.40;0.40;;;;;;;16.87;83.65;96492.75;29396;241;63005;-68
2021/07/26 00:48:19;;;;;;;0.40;0.40;;;;;;;16.89;83.67;96501.44;29396;214;63019;-68
2021/07/26 00:48:52;;;;;;;0.40;0.40;;;;;;;16.87;83.37;96491.97;29396;226;63000;-68
2021/07/26 00:49:25;;;;;;;0.40;0.40;;;;;;;16.87;83.68;96486.47;29396;216;63009;-69
2021/07/26 00:49:57;;;;;;;0.40;0.40;;;;;;;16.86;83.50;96485.69;29396;199;63004;-69
2021/07/26 00:50:28;;;;;;;0.40;0.40;;;;;;;16.87;83.65;96491.97;29396;199;63009;-69
2021/07/26 00:51:02;;;;;;;0.30;0.30;;;;;;;16.86;83.41;96490.34;29396;209;63000;-69
2021/07/26 00:51:35;;;;;;;0.40;0.40;;;;;;;16.86;83.69;96490.34;29395;210;64013;-69
2021/07/26 00:52:07;;;;;;;0.40;0.40;;;;;;;16.85;83.70;96489.56;29395;236;64008;-70
2021/07/26 00:52:38;;;;;;;0.40;0.40;;;;;;;16.84;83.70;96487.97;29396;213;63008;-68
2021/07/26 00:53:10;;;;;;;0.40;0.40;;;;;;;16.84;83.66;96484.41;29396;237;63004;-67
2021/07/26 00:53:43;;;;;;;4.12;3.92;;;;;;;16.82;83.73;96484.75;29395;232;64014;-69
2021/07/26 00:54:22;;;;;;;0.40;0.40;;;;;;;16.82;84.00;96494.91;29396;220;63005;-69
2021/07/26 00:54:54;;;;;;;0.40;0.40;;;;;;;16.81;83.88;96485.09;29396;212;63016;-67
2021/07/26 00:55:25;;;;;;;0.40;0.40;;;;;;;16.81;83.87;96487.84;29396;216;63005;-68
2021/07/26 00:55:57;;;;;;;0.40;0.40;;;;;;;16.80;83.96;96487.03;29396;212;63009;-67
2021/07/26 00:56:29;;;;;;;0.40;0.40;;;;;;;16.80;84.02;96486.25;29396;232;63005;-67
2021/07/26 00:57:06;;;;;;;0.37;0.37;;;;;;;16.79;84.08;96487.37;29396;232;63009;-69
2021/07/26 00:57:38;;;;;;;0.40;0.40;;;;;;;16.75;84.17;96485.31;29395;197;64009;-69
2021/07/26 00:58:10;;;;;;;0.40;0.40;;;;;;;16.79;83.98;96490.13;29396;278;63009;-70
2021/07/26 00:58:42;;;;;;;0.40;0.40;;;;;;;16.78;84.24;96488.53;29396;228;63004;-68
2021/07/26 00:59:15;;;;;;;0.40;0.40;;;;;;;16.74;84.58;96489.22;29396;219;63009;-69
2021/07/26 00:59:48;;;;;;;0.40;0.40;;;;;;;16.73;84.48;96486.81;29396;204;63004;-68
2021/07/26 01:00:19;;;;;;;0.40;0.40;;;;;;;16.70;84.57;96482.81;29395;229;64014;-68
2021/07/26 01:00:50;;;;;;;0.40;0.40;;;;;;;16.70;84.40;96484.75;29396;230;63005;-68
2021/07/26 01:01:22;;;;;;;0.40;0.40;;;;;;;16.69;84.51;96491.38;29396;249;63009;-68
2021/07/26 01:01:53;;;;;;;0.40;0.40;;;;;;;16.68;84.57;96493.31;29396;216;63005;-69
2021/07/26 01:02:24;;;;;;;0.40;0.40;;;;;;;16.67;84.54;96491.72;29396;224;63009;-69
2021/07/26 01:02:55;;;;;;;0.40;0.40;;;;;;;16.66;85.13;96490.09;29396;213;63005;-69
2021/07/26 01:03:26;;;;;;;0.30;0.30;;;;;;;16.66;84.93;96486.56;29396;232;63009;-67
2021/07/26 01:03:58;;;;;;;0.40;0.40;;;;;;;16.65;84.79;96490.44;29396;230;63005;-68
2021/07/26 01:04:29;;;;;;;0.40;0.40;;;;;;;16.64;84.67;96492.38;29396;212;63023;-69
2021/07/26 01:05:00;;;;;;;0.40;0.40;;;;;;;16.64;84.95;96492.38;29395;277;64009;-69
2021/07/26 01:05:33;;;;;;;0.40;0.40;;;;;;;16.64;84.71;96489.66;29396;220;63009;-69
2021/07/26 01:06:04;;;;;;;0.40;0.40;;;;;;;16.64;84.83;96494.31;29396;212;63004;-70
2021/07/26 01:06:37;;;;;;;0.40;0.40;;;;;;;16.64;84.81;96489.66;29396;234;63009;-68
2021/07/26 01:07:08;;;;;;;0.40;0.40;;;;;;;16.63;85.44;96496.25;29396;245;63004;-68
2021/07/26 01:07:40;;;;;;;0.40;0.40;;;;;;;16.61;85.47;96501.28;29396;210;63008;-69
2021/07/26 01:08:11;;;;;;;0.40;0.40;;;;;;;16.60;85.42;96486.00;29397;227;63005;-70
2021/07/26 01:08:42;;;;;;;0.40;0.40;;;;;;;16.59;85.34;96491.81;29397;237;63009;-69
2021/07/26 01:09:14;;;;;;;0.40;0.40;;;;;;;16.61;85.09;96484.84;29397;211;63005;-69
2021/07/26 01:09:46;;;;;;;0.40;0.40;;;;;;;16.61;84.95;96490.34;29397;251;63009;-69
2021/07/26 01:10:18;;;;;;;0.40;0.40;;;;;;;16.61;85.20;96490.34;29396;208;64009;-68
2021/07/26 01:10:52;;;;;;;0.40;0.40;;;;;;;16.60;85.36;96491.47;29397;285;63018;-68
2021/07/26 01:11:23;;;;;;;0.43;0.43;;;;;;;16.57;85.57;96492.16;29397;207;63011;-68
2021/07/26 01:11:55;;;;;;;0.40;0.40;;;;;;;16.54;85.70;96492.03;29396;284;64013;-67
2021/07/26 01:12:27;;;;;;;0.40;0.40;;;;;;;16.54;85.44;96495.56;29396;209;64004;-66
2021/07/26 01:12:58;;;;;;;0.40;0.40;;;;;;;16.54;85.36;96492.03;29397;197;63009;-66
2021/07/26 01:13:30;;;;;;;0.40;0.40;;;;;;;16.58;85.10;96496.50;29396;207;64004;-68
2021/07/26 01:14:04;;;;;;;0.40;0.40;;;;;;;16.60;85.26;96496.16;29397;218;63017;-71
2021/07/26 01:14:37;;;;;;;0.40;0.40;;;;;;;16.56;85.48;96506.19;29397;212;63004;-67
2021/07/26 01:15:10;;;;;;;0.40;0.40;;;;;;;16.53;85.29;96504.91;29397;215;63008;-63
2021/07/26 01:15:42;;;;;;;0.40;0.40;;;;;;;16.52;85.55;96506.06;29397;220;63006;-69
2021/07/26 01:16:14;;;;;;;0.40;0.40;;;;;;;16.49;85.40;96501.25;29397;231;63009;-66
2021/07/26 01:16:47;;;;;;;0.40;0.40;;;;;;;16.49;85.43;96504.00;29397;229;63005;-68
2021/07/26 01:17:58;;;;;;;0.40;0.40;;;;;;;16.45;85.80;96500.34;29396;229;64013;-68
2021/07/26 01:18:34;;;;;;;0.40;0.40;;;;;;;16.46;85.40;96499.19;29396;214;64009;-67
2021/07/26 01:19:05;;;;;;;0.40;0.40;;;;;;;16.46;85.28;96501.13;29397;203;63014;-67
2021/07/26 01:19:37;;;;;;;0.40;0.40;;;;;;;16.46;85.43;96499.19;29397;246;63004;-68
2021/07/26 01:20:09;;;;;;;0.40;0.40;;;;;;;16.46;85.40;96499.19;29397;198;63009;-69
2021/07/26 01:20:43;;;;;;;0.40;0.40;;;;;;;16.47;85.57;96508.22;29397;203;63004;-67
2021/07/26 01:21:17;;;;;;;0.40;0.40;;;;;;;16.46;85.27;96495.66;29396;322;63009;-68
2021/07/26 01:21:48;;;;;;;0.30;0.30;;;;;;;16.45;85.31;96497.59;29395;210;64001;-69
2021/07/26 01:22:20;;;;;;;0.40;0.40;;;;;;;16.46;85.29;96499.19;29396;202;64013;-69
2021/07/26 01:22:51;;;;;;;0.40;0.40;;;;;;;16.45;85.57;96496.81;29396;222;63005;-69
2021/07/26 01:23:24;;;;;;;0.40;0.40;;;;;;;16.46;85.38;96493.72;29396;235;63009;-69
2021/07/26 01:23:57;;;;;;;0.40;0.40;;;;;;;16.47;85.47;96497.25;29396;237;63005;-68
2021/07/26 01:24:28;;;;;;;0.40;0.40;;;;;;;16.46;85.24;96493.72;29396;228;63009;-67
2021/07/26 01:25:01;;;;;;;0.40;0.40;;;;;;;16.48;85.47;96496.13;29396;252;63009;-68
2021/07/26 01:25:35;;;;;;;0.40;0.40;;;;;;;16.47;85.31;96500.00;29396;286;63009;-68
2021/07/26 01:26:12;;;;;;;0.40;0.40;;;;;;;16.45;85.05;96492.12;29396;280;63005;-69
2021/07/26 01:26:43;;;;;;;0.40;0.40;;;;;;;16.46;85.15;96487.44;29395;274;64013;-67
2021/07/26 01:27:14;;;;;;;0.40;0.40;;;;;;;16.44;85.29;96490.53;29396;218;63004;-69
2021/07/26 01:27:46;;;;;;;0.40;0.40;;;;;;;16.43;85.56;96494.41;29396;228;63009;-67
2021/07/26 01:28:21;;;;;;;0.40;0.40;;;;;;;16.42;85.50;96492.81;29396;343;63004;-68
2021/07/26 01:28:58;;;;;;;0.40;0.40;;;;;;;16.39;85.60;96488.81;29396;265;63009;-70
2021/07/26 01:29:29;;;;;;;0.40;0.40;;;;;;;16.37;85.90;96493.81;29396;203;63004;-69
2021/07/26 01:30:00;;;;;;;0.40;0.40;;;;;;;16.36;86.03;96488.69;29396;233;63013;-68
2021/07/26 01:30:33;;;;;;;0.40;0.40;;;;;;;16.35;86.01;96490.62;29396;268;63010;-68
2021/07/26 01:31:05;;;;;;;0.40;0.40;;;;;;;16.34;85.87;96493.69;29396;255;63009;-71
2021/07/26 01:31:36;;;;;;;0.40;0.40;;;;;;;16.35;85.87;96498.03;29396;216;63011;-70
2021/07/26 01:32:08;;;;;;;0.40;0.40;;;;;;;16.36;85.87;96494.16;29395;247;64013;-68
2021/07/26 01:32:39;;;;;;;0.40;0.40;;;;;;;16.35;85.91;96493.34;29396;238;63005;-70
2021/07/26 01:33:12;;;;;;;0.40;0.40;;;;;;;16.36;85.75;96494.94;29396;372;63009;-70
2021/07/26 01:33:46;;;;;;;0.40;0.40;;;;;;;16.36;85.66;96494.94;29396;196;63005;-70
2021/07/26 01:34:17;;;;;;;0.40;0.40;;;;;;;16.36;85.76;96489.47;29396;401;63009;-68
2021/07/26 01:34:49;;;;;;;0.40;0.40;;;;;;;16.36;85.67;96497.69;29396;196;63004;-68
2021/07/26 01:35:20;;;;;;;0.40;0.40;;;;;;;16.37;85.71;96495.75;29396;197;63009;-69
2021/07/26 01:35:52;;;;;;;0.40;0.40;;;;;;;16.36;85.61;96494.94;29396;227;63004;-68
2021/07/26 01:36:24;;;;;;;0.40;0.40;;;;;;;16.37;85.78;96499.28;29396;211;63008;-68
2021/07/26 01:36:55;;;;;;;0.40;0.40;;;;;;;16.36;85.78;96492.22;29396;256;63004;-69
2021/07/26 01:37:26;;;;;;;0.40;0.40;;;;;;;16.37;85.77;96501.22;29395;238;64013;-68
2021/07/26 01:37:57;;;;;;;0.40;0.40;;;;;;;16.35;85.95;96498.81;29396;203;63005;-67
2021/07/26 01:38:29;;;;;;;0.40;0.40;;;;;;;16.34;85.71;96496.44;29396;226;63009;-67
2021/07/26 01:39:00;;;;;;;0.40;0.40;;;;;;;16.34;86.02;96493.69;29395;265;64009;-71
2021/07/26 01:39:31;;;;;;;0.40;0.40;;;;;;;16.34;85.94;96501.91;29395;344;64013;-69
2021/07/26 01:40:05;;;;;;;0.40;0.40;;;;;;;16.34;86.05;96490.94;29396;259;63017;-69
2021/07/26 01:40:39;;;;;;;0.30;0.30;;;;;;;16.34;85.77;96499.16;29396;221;63009;-68
2021/07/26 01:41:18;;;;;;;0.40;0.40;;;;;;;16.35;85.69;96495.28;29396;233;63005;-69
2021/07/26 01:41:54;;;;;;;0.40;0.40;;;;;;;16.34;85.92;96491.75;29396;215;63009;-67
2021/07/26 01:42:25;;;;;;;0.40;0.40;;;;;;;16.34;86.25;96504.66;29396;202;63004;-68
2021/07/26 01:43:02;;;;;;;0.40;0.40;;;;;;;16.31;86.21;96497.09;29396;214;63009;-68
2021/07/26 01:43:38;;;;;;;0.40;0.40;;;;;;;16.32;86.47;96499.50;29395;208;64009;-65
2021/07/26 01:44:13;;;;;;;0.40;0.40;;;;;;;16.31;86.56;96494.37;29396;237;63008;-68
2021/07/26 01:44:44;;;;;;;0.40;0.40;;;;;;;16.31;86.49;96499.84;29396;218;63005;-67
2021/07/26 01:45:16;;;;;;;0.37;0.37;;;;;;;16.32;86.39;96502.25;29396;197;63009;-69
2021/07/26 01:46:08;;;;;;;0.40;0.40;;;;;;;16.31;86.64;96495.16;29396;232;63005;-69
2021/07/26 01:47:13;;;;;;;0.40;0.40;;;;;;;16.31;86.92;96495.16;29396;347;63009;-69
2021/07/26 01:47:50;;;;;;;0.40;0.40;;;;;;;16.32;86.96;96499.50;29395;211;64009;-68
2021/07/26 01:48:35;;;;;;;0.40;0.40;;;;;;;16.32;86.92;96502.25;29396;219;63009;-69
2021/07/26 01:49:52;;;;;;;0.40;0.40;;;;;;;16.31;86.79;96492.44;29395;208;64009;-67
2021/07/26 01:50:26;;;;;;;0.40;0.40;;;;;;;16.35;86.63;96492.56;29395;197;64013;-67
2021/07/26 01:51:07;;;;;;;0.52;0.52;;;;;;;16.34;86.74;96493.69;29396;215;63004;-68
2021/07/26 01:51:40;;;;;;;0.50;0.50;;;;;;;16.37;86.34;96484.81;29418;197;63010;-69
2021/07/26 01:52:13;;;;;;;0.40;0.40;;;;;;;16.37;86.16;96493.00;29395;217;64008;-68
2021/07/26 01:52:48;;;;;;;0.40;0.40;;;;;;;16.39;86.14;96493.47;29396;300;63009;-67
2021/07/26 01:53:19;;;;;;;0.50;0.50;;;;;;;16.39;86.28;96498.94;29395;200;64009;-69
2021/07/26 01:53:51;;;;;;;0.40;0.40;;;;;;;16.39;86.48;96490.75;29396;205;63009;-65
2021/07/26 01:54:22;;;;;;;0.40;0.40;;;;;;;16.40;86.18;96492.34;29396;219;63005;-67
2021/07/26 01:54:54;;;;;;;0.40;0.40;;;;;;;16.40;86.05;96489.59;29396;199;63009;-67
2021/07/26 01:55:26;;;;;;;0.40;0.40;;;;;;;16.41;86.48;96485.72;29396;251;63005;-70
2021/07/26 01:55:57;;;;;;;0.40;0.40;;;;;;;16.40;86.61;96484.12;29396;232;63014;-68
2021/07/26 01:56:29;;;;;;;0.50;0.50;;;;;;;16.39;86.51;96488.00;29396;267;63004;-68
2021/07/26 01:57:01;;;;;;;0.40;0.40;;;;;;;16.40;86.44;96484.94;29396;234;63009;-68
2021/07/26 01:57:33;;;;;;;2.37;2.17;;;;;;;16.42;86.24;96493.59;29395;242;64009;-66
2021/07/26 01:58:04;;;;;;;0.40;0.40;;;;;;;16.42;86.07;96490.88;29396;219;63009;-68
2021/07/26 01:58:35;;;;;;;0.40;0.40;;;;;;;16.43;86.09;96486.19;29396;197;63004;-66
2021/07/26 01:59:07;;;;;;;0.40;0.40;;;;;;;16.46;85.89;96490.97;29397;204;63008;-65
2021/07/26 01:59:39;;;;;;;0.40;0.40;;;;;;;16.46;85.65;96490.97;29395;208;64008;-69
2021/07/26 02:00:13;;;;;;;0.40;0.40;;;;;;;16.46;85.94;96488.25;29396;212;63009;-68
2021/07/26 02:00:44;;;;;;;0.30;0.30;;;;;;;16.46;85.92;96487.44;29396;228;63005;-70
2021/07/26 02:01:15;;;;;;;0.40;0.40;;;;;;;16.45;86.25;96492.12;29396;228;63019;-69
2021/07/26 02:01:46;;;;;;;0.40;0.40;;;;;;;16.44;85.95;96493.25;29396;276;63005;-68
2021/07/26 02:02:17;;;;;;;0.40;0.40;;;;;;;16.45;86.05;96494.87;29396;268;63009;-68
2021/07/26 02:02:48;;;;;;;0.40;0.40;;;;;;;16.46;86.14;96492.91;29396;197;63005;-68
2021/07/26 02:03:20;;;;;;;0.40;0.40;;;;;;;16.45;85.98;96489.38;29396;202;63021;-66
2021/07/26 02:03:52;;;;;;;0.40;0.40;;;;;;;16.50;85.45;96491.91;29396;265;63005;-69
2021/07/26 02:04:24;;;;;;;0.40;0.40;;;;;;;16.52;85.58;96491.56;29396;244;63009;-68
2021/07/26 02:04:56;;;;;;;0.40;0.40;;;;;;;16.50;85.96;96493.84;29395;231;64009;-66
2021/07/26 02:05:28;;;;;;;0.70;0.70;;;;;;;16.48;86.01;96494.19;29396;206;63009;-67
2021/07/26 02:05:59;;;;;;;0.47;0.47;;;;;;;16.47;86.07;96492.59;29396;220;63015;-69
2021/07/26 02:06:30;;;;;;;0.82;0.82;;;;;;;16.46;86.13;96496.47;29396;230;63008;-66
2021/07/26 02:07:06;;;;;;;0.40;0.40;;;;;;;16.46;86.02;96493.72;29396;198;63004;-68
2021/07/26 02:07:37;;;;;;;0.40;0.40;;;;;;;16.46;86.04;96495.66;29396;262;63024;-70
2021/07/26 02:08:08;;;;;;;0.40;0.40;;;;;;;16.46;85.96;96501.13;29396;203;63017;-70
2021/07/26 02:08:39;;;;;;;0.40;0.40;;;;;;;16.46;85.88;96492.91;29396;248;63009;-68
2021/07/26 02:09:11;;;;;;;0.40;0.40;;;;;;;16.45;86.15;96494.87;29396;205;63005;-67
2021/07/26 02:09:42;;;;;;;0.40;0.40;;;;;;;16.45;86.18;96492.12;29396;272;63018;-67
2021/07/26 02:10:13;;;;;;;0.40;0.40;;;;;;;16.45;86.01;96497.59;29395;236;64009;-69
2021/07/26 02:10:49;;;;;;;0.40;0.40;;;;;;;16.46;86.16;96495.66;29398;225;63019;-70
2021/07/26 02:11:22;;;;;;;0.40;0.40;;;;;;;16.45;85.98;96492.12;29397;199;63000;-68
2021/07/26 02:11:53;;;;;;;0.40;0.40;;;;;;;16.45;86.11;96492.12;29396;247;63014;-67
2021/07/26 02:12:25;;;;;;;0.40;0.40;;;;;;;16.47;86.14;96500.00;29397;225;63008;-67
2021/07/26 02:12:58;;;;;;;0.40;0.40;;;;;;;16.47;86.13;96487.09;29395;237;64013;-68
2021/07/26 02:13:29;;;;;;;0.40;0.40;;;;;;;16.47;86.58;96489.03;29397;258;63004;-67
2021/07/26 02:14:00;;;;;;;0.40;0.40;;;;;;;16.47;86.31;96495.31;29397;209;63009;-68
2021/07/26 02:14:31;;;;;;;0.50;0.50;;;;;;;16.49;85.98;96494.97;29395;223;63004;-67
2021/07/26 02:15:04;;;;;;;0.40;0.40;;;;;;;16.49;85.82;96497.72;29395;225;63009;-67
2021/07/26 02:15:35;;;;;;;0.40;0.40;;;;;;;16.50;85.80;96491.91;29394;306;64009;-68
2021/07/26 02:16:12;;;;;;;0.50;0.50;;;;;;;16.51;85.90;96500.91;29395;213;63009;-66
2021/07/26 02:16:51;;;;;;;0.40;0.40;;;;;;;16.49;85.97;96487.56;29394;199;64009;-70
2021/07/26 02:17:22;;;;;;;0.40;0.40;;;;;;;16.48;85.89;96488.72;29395;216;63009;-69
2021/07/26 02:17:53;;;;;;;0.40;0.40;;;;;;;16.49;85.67;96492.25;29395;222;63005;-67
2021/07/26 02:18:24;;;;;;;0.40;0.40;;;;;;;16.49;85.62;96498.53;29395;293;63009;-69
2021/07/26 02:18:55;;;;;;;0.40;0.40;;;;;;;16.50;85.35;96488.37;29394;263;64005;-68
2021/07/26 02:19:26;;;;;;;0.40;0.40;;;;;;;16.49;85.56;96495.78;29395;202;63009;-69
2021/07/26 02:19:58;;;;;;;0.40;0.40;;;;;;;16.49;85.74;96501.25;29393;308;64009;-69
2021/07/26 02:20:32;;;;;;;0.40;0.40;;;;;;;16.48;85.78;96494.19;29395;228;63009;-68
2021/07/26 02:21:03;;;;;;;0.50;0.50;;;;;;;16.48;85.55;96496.13;29395;237;63004;-70
2021/07/26 02:21:35;;;;;;;0.40;0.40;;;;;;;16.49;85.73;96495.78;29395;306;63008;-69
2021/07/26 02:22:06;;;;;;;0.40;0.40;;;;;;;16.49;85.52;96498.53;29395;240;63004;-63
2021/07/26 02:22:37;;;;;;;0.40;0.40;;;;;;;16.49;85.57;96504.00;29393;216;64014;-68
2021/07/26 02:23:08;;;;;;;0.50;0.50;;;;;;;16.48;85.66;96494.19;29395;269;63005;-67
2021/07/26 02:23:40;;;;;;;0.30;0.30;;;;;;;16.47;85.94;96495.31;29395;197;63009;-69
2021/07/26 02:24:11;;;;;;;0.40;0.40;;;;;;;16.46;85.95;96504.69;29395;237;63005;-68
2021/07/26 02:24:42;;;;;;;0.40;0.40;;;;;;;16.46;85.97;96492.91;29395;307;63009;-68
2021/07/26 02:25:14;;;;;;;0.40;0.40;;;;;;;16.45;86.08;96499.53;29395;228;63005;-68
2021/07/26 02:25:45;;;;;;;0.40;0.40;;;;;;;16.45;85.88;96505.81;29395;318;63009;-66
2021/07/26 02:26:16;;;;;;;0.40;0.40;;;;;;;16.42;85.84;96501.81;29395;214;63005;-67
2021/07/26 02:26:47;;;;;;;0.40;0.40;;;;;;;16.42;86.10;96501.00;29395;260;63009;-66
2021/07/26 02:27:19;;;;;;;0.40;0.40;;;;;;;16.41;85.72;96500.22;29395;197;63004;-67
2021/07/26 02:27:50;;;;;;;0.40;0.40;;;;;;;16.43;85.76;96505.34;29393;225;64013;-66
2021/07/26 02:28:22;;;;;;;0.40;0.40;;;;;;;16.43;85.44;96502.63;29395;197;63004;-67
2021/07/26 02:28:53;;;;;;;0.40;0.40;;;;;;;16.45;85.67;96507.75;29395;216;63009;-68
2021/07/26 02:29:24;;;;;;;0.40;0.40;;;;;;;16.44;85.58;96506.94;29395;218;63004;-69
2021/07/26 02:29:56;;;;;;;0.40;0.40;;;;;;;16.43;85.74;96502.63;29395;218;63008;-69
2021/07/26 02:30:27;;;;;;;0.40;0.40;;;;;;;16.40;85.53;96495.06;29394;305;64005;-67
2021/07/26 02:31:02;;;;;;;0.40;0.40;;;;;;;16.43;85.67;96494.41;29395;202;63009;-68
2021/07/26 02:31:34;;;;;;;0.45;0.45;;;;;;;16.42;85.70;96503.75;29395;200;63005;-68
2021/07/26 02:32:06;;;;;;;0.40;0.40;;;;;;;16.39;85.70;96505.22;29394;216;63013;-68
2021/07/26 02:32:37;;;;;;;0.40;0.40;;;;;;;16.39;85.91;96504.44;29395;261;63005;-68
2021/07/26 02:33:08;;;;;;;0.40;0.40;;;;;;;16.39;85.91;96504.44;29395;202;63005;-69
2021/07/26 02:33:39;;;;;;;0.40;0.40;;;;;;;16.38;85.81;96500.09;29394;202;63005;-68
2021/07/26 02:34:11;;;;;;;0.40;0.40;;;;;;;16.38;86.05;96502.81;29393;198;64013;-68
2021/07/26 02:34:42;;;;;;;0.40;0.40;;;;;;;16.37;85.98;96499.28;29395;262;63004;-68
2021/07/26 02:35:13;;;;;;;0.40;0.40;;;;;;;16.37;86.15;96501.22;29395;197;63009;-67
2021/07/26 02:35:45;;;;;;;0.40;0.40;;;;;;;16.37;86.09;96502.03;29393;214;64009;-68
2021/07/26 02:36:16;;;;;;;0.40;0.40;;;;;;;16.37;85.96;96501.22;29393;236;64013;-68
2021/07/26 02:36:47;;;;;;;0.40;0.40;;;;;;;16.37;86.25;96501.22;29395;225;63004;-66